Kapalai — SGNT — position and weather

sailwx.info

Track history (hours):
 
Tides and Currents Weather Stations Pressure Air Temp Water Temp Dewpoint Dewpoint Depression Visibility Wind Speed Wind Dir Waves Ship Positions

Kapalai

Last reported at 2017-Sep-21 14:02 UTC. Time now 2017-Sep-24 06:53 UTC.
Position N 38°41' W 009°25'.

Length 14 m.

Type: Sailing vessel. MMSI: 266118000.

Date/timePositionNaut miles runAvg speedWind from/ knotsBaromVisibWave heightAir tempDewpointWater temp
2017-Sep-21 14:02N 38°41' W 009°25'0 0.0
2017-Sep-21 13:59N 38°41' W 009°25'0 0.0
2017-Sep-21 13:29N 38°41' W 009°25'  
2017-Sep-18 16:26N 38°41' W 009°25'0 0.0
2017-Sep-18 15:59N 38°41' W 009°25'0 0.0
2017-Sep-18 15:30N 38°41' W 009°25'0 0.3
2017-Sep-18 14:46N 38°42' W 009°25'1 2.9
2017-Sep-18 14:30N 38°41' W 009°26'3 5.9
2017-Sep-18 13:59N 38°42' W 009°29'3 6.5
2017-Sep-18 13:30N 38°45' W 009°31'3 6.5
2017-Sep-18 13:00N 38°48' W 009°31'3 5.9
2017-Sep-18 12:30N 38°51' W 009°31'3 5.7
2017-Sep-18 12:00N 38°54' W 009°32'3 5.8
2017-Sep-18 11:29N 38°57' W 009°33'2 5.2
2017-Sep-18 11:00N 38°59' W 009°33'3 6.5
2017-Sep-18 10:30N 39°03' W 009°34'3 5.7
2017-Sep-18 10:00N 39°05' W 009°35'3 6.0
2017-Sep-18 09:30N 39°08' W 009°35'3 6.7
2017-Sep-18 09:00N 39°12' W 009°35'2 4.9
2017-Sep-18 08:31N 39°14' W 009°35'  
Track history (hours):
 
Tides and Currents Weather Stations Pressure Air Temp Water Temp Dewpoint Dewpoint Depression Visibility Wind Speed Wind Dir Waves Ship Positions

Kapalai

Last reported at 2017-Sep-21 14:02 UTC. Time now 2017-Sep-24 06:53 UTC.
Position N 38°41' W 009°25'.

Length 14 m.

Type: Sailing vessel. MMSI: 266118000.

Date/timePositionNaut miles runAvg speedWind from/ knotsBaromVisibWave heightAir tempDewpointWater temp
2017-Sep-21 14:02N 38°41' W 009°25'0 0.0
2017-Sep-21 13:59N 38°41' W 009°25'0 0.0
2017-Sep-21 13:29N 38°41' W 009°25'  
2017-Sep-18 16:26N 38°41' W 009°25'0 0.0
2017-Sep-18 15:59N 38°41' W 009°25'0 0.0
2017-Sep-18 15:30N 38°41' W 009°25'0 0.3
2017-Sep-18 14:46N 38°42' W 009°25'1 2.9
2017-Sep-18 14:30N 38°41' W 009°26'3 5.9
2017-Sep-18 13:59N 38°42' W 009°29'3 6.5
2017-Sep-18 13:30N 38°45' W 009°31'3 6.5
2017-Sep-18 13:00N 38°48' W 009°31'3 5.9
2017-Sep-18 12:30N 38°51' W 009°31'3 5.7
2017-Sep-18 12:00N 38°54' W 009°32'3 5.8
2017-Sep-18 11:29N 38°57' W 009°33'2 5.2
2017-Sep-18 11:00N 38°59' W 009°33'3 6.5
2017-Sep-18 10:30N 39°03' W 009°34'3 5.7
2017-Sep-18 10:00N 39°05' W 009°35'3 6.0
2017-Sep-18 09:30N 39°08' W 009°35'3 6.7
2017-Sep-18 09:00N 39°12' W 009°35'2 4.9
2017-Sep-18 08:31N 39°14' W 009°35'  

Dump ship's entire track history